sensor_id;sensor_type;location;lat;lon;timestamp;temperature;humidity
20337;DHT22;10326;53.660;10.200;2022-12-18T00:00:00;-1.00;68.60
20337;DHT22;10326;53.660;10.200;2022-12-18T00:02:27;-1.00;68.60
20337;DHT22;10326;53.660;10.200;2022-12-18T00:04:55;-1.00;68.70
20337;DHT22;10326;53.660;10.200;2022-12-18T00:07:24;-1.00;68.70
20337;DHT22;10326;53.660;10.200;2022-12-18T00:09:51;-1.00;68.80
20337;DHT22;10326;53.660;10.200;2022-12-18T00:12:18;-1.00;68.80
20337;DHT22;10326;53.660;10.200;2022-12-18T00:14:45;-1.00;68.80
20337;DHT22;10326;53.660;10.200;2022-12-18T00:17:12;-1.00;68.80
20337;DHT22;10326;53.660;10.200;2022-12-18T00:19:39;-1.00;68.70
20337;DHT22;10326;53.660;10.200;2022-12-18T00:22:06;-1.00;69.30
20337;DHT22;10326;53.660;10.200;2022-12-18T00:24:35;-1.00;68.70
20337;DHT22;10326;53.660;10.200;2022-12-18T00:27:02;-1.00;68.70
20337;DHT22;10326;53.660;10.200;2022-12-18T00:29:30;-1.00;68.70
20337;DHT22;10326;53.660;10.200;2022-12-18T00:31:57;-1.00;68.60
20337;DHT22;10326;53.660;10.200;2022-12-18T00:34:24;-1.00;68.60
20337;DHT22;10326;53.660;10.200;2022-12-18T00:36:52;-1.00;68.50
20337;DHT22;10326;53.660;10.200;2022-12-18T00:39:21;-1.10;68.50
20337;DHT22;10326;53.660;10.200;2022-12-18T00:41:49;-1.10;68.40
20337;DHT22;10326;53.660;10.200;2022-12-18T00:44:34;-1.10;68.40
20337;DHT22;10326;53.660;10.200;2022-12-18T00:47:01;-1.10;68.30
20337;DHT22;10326;53.660;10.200;2022-12-18T00:49:28;-1.10;68.30
20337;DHT22;10326;53.660;10.200;2022-12-18T00:51:55;-1.10;68.30
20337;DHT22;10326;53.660;10.200;2022-12-18T00:54:23;-1.10;68.30
20337;DHT22;10326;53.660;10.200;2022-12-18T00:56:52;-1.10;68.30
20337;DHT22;10326;53.660;10.200;2022-12-18T00:59:20;-1.20;68.20
20337;DHT22;10326;53.660;10.200;2022-12-18T01:01:49;-1.20;68.10
20337;DHT22;10326;53.660;10.200;2022-12-18T01:04:19;-1.20;68.10
20337;DHT22;10326;53.660;10.200;2022-12-18T01:06:46;-1.20;68.00
20337;DHT22;10326;53.660;10.200;2022-12-18T01:09:13;-1.20;68.00
20337;DHT22;10326;53.660;10.200;2022-12-18T01:11:40;-1.30;67.90
20337;DHT22;10326;53.660;10.200;2022-12-18T01:14:11;-1.30;67.90
20337;DHT22;10326;53.660;10.200;2022-12-18T01:16:38;-1.30;67.80
20337;DHT22;10326;53.660;10.200;2022-12-18T01:19:06;-1.30;67.90
20337;DHT22;10326;53.660;10.200;2022-12-18T01:21:33;-1.30;67.90
20337;DHT22;10326;53.660;10.200;2022-12-18T01:24:04;-1.40;68.00
20337;DHT22;10326;53.660;10.200;2022-12-18T01:26:33;-1.40;68.00
20337;DHT22;10326;53.660;10.200;2022-12-18T01:29:00;-1.40;68.00
20337;DHT22;10326;53.660;10.200;2022-12-18T01:31:31;-1.40;68.00
20337;DHT22;10326;53.660;10.200;2022-12-18T01:34:02;-1.40;68.10
20337;DHT22;10326;53.660;10.200;2022-12-18T01:36:32;-1.40;68.20
20337;DHT22;10326;53.660;10.200;2022-12-18T01:39:03;-1.40;68.30
20337;DHT22;10326;53.660;10.200;2022-12-18T01:41:31;-1.40;68.30
20337;DHT22;10326;53.660;10.200;2022-12-18T01:44:56;-1.40;68.30
20337;DHT22;10326;53.660;10.200;2022-12-18T01:47:33;-1.40;68.30
20337;DHT22;10326;53.660;10.200;2022-12-18T01:50:07;-1.40;68.30
20337;DHT22;10326;53.660;10.200;2022-12-18T01:52:37;-1.40;68.30
20337;DHT22;10326;53.660;10.200;2022-12-18T01:55:06;-1.40;68.40
20337;DHT22;10326;53.660;10.200;2022-12-18T01:57:35;-1.40;68.40
20337;DHT22;10326;53.660;10.200;2022-12-18T02:00:06;-1.40;68.40
20337;DHT22;10326;53.660;10.200;2022-12-18T02:02:43;-1.40;68.40
20337;DHT22;10326;53.660;10.200;2022-12-18T02:05:16;-1.40;68.40
20337;DHT22;10326;53.660;10.200;2022-12-18T02:07:54;-1.40;68.30
20337;DHT22;10326;53.660;10.200;2022-12-18T02:10:30;-1.40;68.30
20337;DHT22;10326;53.660;10.200;2022-12-18T02:13:05;-1.40;68.30
20337;DHT22;10326;53.660;10.200;2022-12-18T02:15:41;-1.40;68.30
20337;DHT22;10326;53.660;10.200;2022-12-18T02:18:15;-1.40;68.30
20337;DHT22;10326;53.660;10.200;2022-12-18T02:20:47;-1.40;68.30
20337;DHT22;10326;53.660;10.200;2022-12-18T02:23:25;-1.40;68.30
20337;DHT22;10326;53.660;10.200;2022-12-18T02:26:12;-1.40;68.20
20337;DHT22;10326;53.660;10.200;2022-12-18T02:28:46;-1.40;68.20
20337;DHT22;10326;53.660;10.200;2022-12-18T02:31:22;-1.40;68.10
20337;DHT22;10326;53.660;10.200;2022-12-18T02:33:53;-1.40;68.10
20337;DHT22;10326;53.660;10.200;2022-12-18T02:36:24;-1.40;68.00
20337;DHT22;10326;53.660;10.200;2022-12-18T02:38:56;-1.50;67.90
20337;DHT22;10326;53.660;10.200;2022-12-18T02:41:26;-1.50;67.90
20337;DHT22;10326;53.660;10.200;2022-12-18T02:43:58;-1.50;67.90
20337;DHT22;10326;53.660;10.200;2022-12-18T02:46:33;-1.50;67.90
20337;DHT22;10326;53.660;10.200;2022-12-18T02:49:19;-1.50;67.90
20337;DHT22;10326;53.660;10.200;2022-12-18T02:51:55;-1.50;67.90
20337;DHT22;10326;53.660;10.200;2022-12-18T02:54:37;-1.60;67.90
20337;DHT22;10326;53.660;10.200;2022-12-18T02:57:20;-1.60;67.90
20337;DHT22;10326;53.660;10.200;2022-12-18T02:59:57;-1.60;67.90
20337;DHT22;10326;53.660;10.200;2022-12-18T03:02:32;-1.60;67.90
20337;DHT22;10326;53.660;10.200;2022-12-18T03:05:09;-1.60;67.80
20337;DHT22;10326;53.660;10.200;2022-12-18T03:07:43;-1.60;67.70
20337;DHT22;10326;53.660;10.200;2022-12-18T03:10:18;-1.60;67.70
20337;DHT22;10326;53.660;10.200;2022-12-18T03:12:53;-1.60;67.70
20337;DHT22;10326;53.660;10.200;2022-12-18T03:15:26;-1.60;67.60
20337;DHT22;10326;53.660;10.200;2022-12-18T03:18:06;-1.70;67.60
20337;DHT22;10326;53.660;10.200;2022-12-18T03:20:36;-1.70;67.50
20337;DHT22;10326;53.660;10.200;2022-12-18T03:23:07;-1.70;67.40
20337;DHT22;10326;53.660;10.200;2022-12-18T03:25:40;-1.80;67.30
20337;DHT22;10326;53.660;10.200;2022-12-18T03:28:12;-1.80;67.40
20337;DHT22;10326;53.660;10.200;2022-12-18T03:30:43;-1.80;67.40
20337;DHT22;10326;53.660;10.200;2022-12-18T03:33:16;-1.80;67.50
20337;DHT22;10326;53.660;10.200;2022-12-18T03:35:48;-1.80;67.40
20337;DHT22;10326;53.660;10.200;2022-12-18T03:38:17;-1.80;67.40
20337;DHT22;10326;53.660;10.200;2022-12-18T03:40:53;-1.90;67.30
20337;DHT22;10326;53.660;10.200;2022-12-18T03:43:36;-1.90;67.20
20337;DHT22;10326;53.660;10.200;2022-12-18T03:46:15;-1.90;67.20
20337;DHT22;10326;53.660;10.200;2022-12-18T03:48:48;-2.00;67.10
20337;DHT22;10326;53.660;10.200;2022-12-18T03:51:24;-1.90;67.20
20337;DHT22;10326;53.660;10.200;2022-12-18T03:53:57;-2.00;67.10
20337;DHT22;10326;53.660;10.200;2022-12-18T03:56:32;-2.00;67.10
20337;DHT22;10326;53.660;10.200;2022-12-18T03:59:04;-2.00;67.10
20337;DHT22;10326;53.660;10.200;2022-12-18T04:01:35;-2.10;66.90
20337;DHT22;10326;53.660;10.200;2022-12-18T04:04:05;-2.10;66.90
20337;DHT22;10326;53.660;10.200;2022-12-18T04:06:37;-2.10;66.90
20337;DHT22;10326;53.660;10.200;2022-12-18T04:09:07;-2.10;66.90
20337;DHT22;10326;53.660;10.200;2022-12-18T04:11:39;-2.20;66.80
20337;DHT22;10326;53.660;10.200;2022-12-18T04:14:09;-2.20;66.80
20337;DHT22;10326;53.660;10.200;2022-12-18T04:16:37;-2.20;66.80
20337;DHT22;10326;53.660;10.200;2022-12-18T04:19:08;-2.20;66.80
20337;DHT22;10326;53.660;10.200;2022-12-18T04:21:39;-2.30;66.70
20337;DHT22;10326;53.660;10.200;2022-12-18T04:24:09;-2.20;66.90
20337;DHT22;10326;53.660;10.200;2022-12-18T04:26:40;-2.30;66.80
20337;DHT22;10326;53.660;10.200;2022-12-18T04:29:16;-2.30;66.90
20337;DHT22;10326;53.660;10.200;2022-12-18T04:31:43;-2.30;66.90
20337;DHT22;10326;53.660;10.200;2022-12-18T04:34:11;-2.30;67.00
20337;DHT22;10326;53.660;10.200;2022-12-18T04:36:44;-2.30;67.00
20337;DHT22;10326;53.660;10.200;2022-12-18T04:39:13;-2.40;66.90
20337;DHT22;10326;53.660;10.200;2022-12-18T04:41:40;-2.40;67.00
20337;DHT22;10326;53.660;10.200;2022-12-18T04:44:09;-2.40;67.10
20337;DHT22;10326;53.660;10.200;2022-12-18T04:46:38;-2.40;67.00
20337;DHT22;10326;53.660;10.200;2022-12-18T04:49:05;-2.40;67.00
20337;DHT22;10326;53.660;10.200;2022-12-18T04:51:33;-2.40;67.00
20337;DHT22;10326;53.660;10.200;2022-12-18T04:54:00;-2.40;67.10
20337;DHT22;10326;53.660;10.200;2022-12-18T04:56:27;-2.40;67.10
20337;DHT22;10326;53.660;10.200;2022-12-18T04:58:55;-2.40;67.20
20337;DHT22;10326;53.660;10.200;2022-12-18T05:01:22;-2.40;67.20
20337;DHT22;10326;53.660;10.200;2022-12-18T05:03:51;-2.40;67.20
20337;DHT22;10326;53.660;10.200;2022-12-18T05:06:18;-2.40;67.20
20337;DHT22;10326;53.660;10.200;2022-12-18T05:08:46;-2.40;67.20
20337;DHT22;10326;53.660;10.200;2022-12-18T05:11:14;-2.40;67.20
20337;DHT22;10326;53.660;10.200;2022-12-18T05:13:42;-2.40;67.20
20337;DHT22;10326;53.660;10.200;2022-12-18T05:16:10;-2.40;67.20
20337;DHT22;10326;53.660;10.200;2022-12-18T05:18:38;-2.40;67.20
20337;DHT22;10326;53.660;10.200;2022-12-18T05:21:06;-2.40;67.20
20337;DHT22;10326;53.660;10.200;2022-12-18T05:23:34;-2.40;67.20
20337;DHT22;10326;53.660;10.200;2022-12-18T05:26:03;-2.40;67.10
20337;DHT22;10326;53.660;10.200;2022-12-18T05:28:32;-2.40;67.10
20337;DHT22;10326;53.660;10.200;2022-12-18T05:31:02;-2.40;67.10
20337;DHT22;10326;53.660;10.200;2022-12-18T05:33:31;-2.40;67.10
20337;DHT22;10326;53.660;10.200;2022-12-18T05:36:01;-2.40;67.10
20337;DHT22;10326;53.660;10.200;2022-12-18T05:38:31;-2.50;67.10
20337;DHT22;10326;53.660;10.200;2022-12-18T05:40:59;-2.50;67.10
20337;DHT22;10326;53.660;10.200;2022-12-18T05:43:27;-2.50;67.10
20337;DHT22;10326;53.660;10.200;2022-12-18T05:45:55;-2.50;67.20
20337;DHT22;10326;53.660;10.200;2022-12-18T05:48:23;-2.50;67.10
20337;DHT22;10326;53.660;10.200;2022-12-18T05:50:51;-2.50;67.20
20337;DHT22;10326;53.660;10.200;2022-12-18T05:53:19;-2.50;67.20
20337;DHT22;10326;53.660;10.200;2022-12-18T05:55:48;-2.50;67.20
20337;DHT22;10326;53.660;10.200;2022-12-18T05:58:16;-2.50;67.00
20337;DHT22;10326;53.660;10.200;2022-12-18T06:00:45;-2.50;66.90
20337;DHT22;10326;53.660;10.200;2022-12-18T06:03:13;-2.50;66.90
20337;DHT22;10326;53.660;10.200;2022-12-18T06:05:42;-2.50;66.90
20337;DHT22;10326;53.660;10.200;2022-12-18T06:08:11;-2.50;67.00
20337;DHT22;10326;53.660;10.200;2022-12-18T06:10:40;-2.50;67.00
20337;DHT22;10326;53.660;10.200;2022-12-18T06:13:08;-2.50;67.10
20337;DHT22;10326;53.660;10.200;2022-12-18T06:15:36;-2.50;67.10
20337;DHT22;10326;53.660;10.200;2022-12-18T06:18:04;-2.60;67.00
20337;DHT22;10326;53.660;10.200;2022-12-18T06:20:31;-2.50;67.10
20337;DHT22;10326;53.660;10.200;2022-12-18T06:22:58;-2.50;67.00
20337;DHT22;10326;53.660;10.200;2022-12-18T06:25:25;-2.50;67.00
20337;DHT22;10326;53.660;10.200;2022-12-18T06:27:52;-2.60;66.90
20337;DHT22;10326;53.660;10.200;2022-12-18T06:30:21;-2.50;67.00
20337;DHT22;10326;53.660;10.200;2022-12-18T06:32:49;-2.50;67.00
20337;DHT22;10326;53.660;10.200;2022-12-18T06:35:16;-2.60;67.00
20337;DHT22;10326;53.660;10.200;2022-12-18T06:37:44;-2.60;66.90
20337;DHT22;10326;53.660;10.200;2022-12-18T06:40:11;-2.60;66.90
20337;DHT22;10326;53.660;10.200;2022-12-18T06:42:38;-2.60;67.40
20337;DHT22;10326;53.660;10.200;2022-12-18T06:45:06;-2.60;66.80
20337;DHT22;10326;53.660;10.200;2022-12-18T06:47:35;-2.60;66.90
20337;DHT22;10326;53.660;10.200;2022-12-18T06:50:03;-2.60;66.90
20337;DHT22;10326;53.660;10.200;2022-12-18T06:52:31;-2.60;66.90
20337;DHT22;10326;53.660;10.200;2022-12-18T06:54:59;-2.60;66.90
20337;DHT22;10326;53.660;10.200;2022-12-18T06:57:26;-2.70;67.00
20337;DHT22;10326;53.660;10.200;2022-12-18T06:59:53;-2.60;67.00
20337;DHT22;10326;53.660;10.200;2022-12-18T07:02:20;-2.60;67.00
20337;DHT22;10326;53.660;10.200;2022-12-18T07:04:49;-2.60;67.10
20337;DHT22;10326;53.660;10.200;2022-12-18T07:07:16;-2.60;67.10
20337;DHT22;10326;53.660;10.200;2022-12-18T07:09:43;-2.60;67.10
20337;DHT22;10326;53.660;10.200;2022-12-18T07:12:10;-2.60;67.20
20337;DHT22;10326;53.660;10.200;2022-12-18T07:14:37;-2.60;67.20
20337;DHT22;10326;53.660;10.200;2022-12-18T07:17:04;-2.60;67.20
20337;DHT22;10326;53.660;10.200;2022-12-18T07:19:31;-2.60;67.20
20337;DHT22;10326;53.660;10.200;2022-12-18T07:22:00;-2.60;67.30
20337;DHT22;10326;53.660;10.200;2022-12-18T07:24:27;-2.60;67.20
20337;DHT22;10326;53.660;10.200;2022-12-18T07:26:54;-2.60;67.20
20337;DHT22;10326;53.660;10.200;2022-12-18T07:29:22;-2.50;67.30
20337;DHT22;10326;53.660;10.200;2022-12-18T07:31:51;-2.60;67.20
20337;DHT22;10326;53.660;10.200;2022-12-18T07:34:18;-2.50;67.30
20337;DHT22;10326;53.660;10.200;2022-12-18T07:36:45;-2.50;67.30
20337;DHT22;10326;53.660;10.200;2022-12-18T07:39:14;-2.50;67.30
20337;DHT22;10326;53.660;10.200;2022-12-18T07:41:41;-2.50;67.20
20337;DHT22;10326;53.660;10.200;2022-12-18T07:44:12;-2.50;67.20
20337;DHT22;10326;53.660;10.200;2022-12-18T07:46:40;-2.50;67.20
20337;DHT22;10326;53.660;10.200;2022-12-18T07:49:07;-2.50;67.20
20337;DHT22;10326;53.660;10.200;2022-12-18T07:51:34;-2.50;67.20
20337;DHT22;10326;53.660;10.200;2022-12-18T07:54:02;-2.50;67.20
20337;DHT22;10326;53.660;10.200;2022-12-18T07:56:31;-2.50;67.30
20337;DHT22;10326;53.660;10.200;2022-12-18T07:58:59;-2.50;67.30
20337;DHT22;10326;53.660;10.200;2022-12-18T08:01:30;-2.50;67.40
20337;DHT22;10326;53.660;10.200;2022-12-18T08:03:57;-2.50;67.40
20337;DHT22;10326;53.660;10.200;2022-12-18T08:06:24;-2.50;67.40
20337;DHT22;10326;53.660;10.200;2022-12-18T08:08:52;-2.50;67.50
20337;DHT22;10326;53.660;10.200;2022-12-18T08:11:21;-2.50;67.50
20337;DHT22;10326;53.660;10.200;2022-12-18T08:13:50;-2.40;67.60
20337;DHT22;10326;53.660;10.200;2022-12-18T08:16:17;-2.40;67.70
20337;DHT22;10326;53.660;10.200;2022-12-18T08:18:45;-2.40;67.70
20337;DHT22;10326;53.660;10.200;2022-12-18T08:21:13;-2.40;67.80
20337;DHT22;10326;53.660;10.200;2022-12-18T08:23:42;-2.30;67.90
20337;DHT22;10326;53.660;10.200;2022-12-18T08:26:11;-2.30;68.00
20337;DHT22;10326;53.660;10.200;2022-12-18T08:28:39;-2.30;68.00
20337;DHT22;10326;53.660;10.200;2022-12-18T08:31:09;-2.30;68.00
20337;DHT22;10326;53.660;10.200;2022-12-18T08:33:37;-2.20;68.10
20337;DHT22;10326;53.660;10.200;2022-12-18T08:36:06;-2.20;68.20
20337;DHT22;10326;53.660;10.200;2022-12-18T08:38:33;-2.10;68.20
20337;DHT22;10326;53.660;10.200;2022-12-18T08:41:02;-2.10;68.20
20337;DHT22;10326;53.660;10.200;2022-12-18T08:43:31;-2.10;68.30
20337;DHT22;10326;53.660;10.200;2022-12-18T08:46:17;-2.00;68.30
20337;DHT22;10326;53.660;10.200;2022-12-18T08:48:45;-2.00;68.40
20337;DHT22;10326;53.660;10.200;2022-12-18T08:51:12;-2.00;68.40
20337;DHT22;10326;53.660;10.200;2022-12-18T08:53:41;-1.90;68.50
20337;DHT22;10326;53.660;10.200;2022-12-18T08:56:10;-1.90;68.60
20337;DHT22;10326;53.660;10.200;2022-12-18T08:58:37;-1.90;68.60
20337;DHT22;10326;53.660;10.200;2022-12-18T09:01:06;-1.80;68.70
20337;DHT22;10326;53.660;10.200;2022-12-18T09:03:37;-1.80;68.70
20337;DHT22;10326;53.660;10.200;2022-12-18T09:06:04;-1.80;68.70
20337;DHT22;10326;53.660;10.200;2022-12-18T09:08:32;-1.70;68.80
20337;DHT22;10326;53.660;10.200;2022-12-18T09:11:02;-1.70;68.80
20337;DHT22;10326;53.660;10.200;2022-12-18T09:13:29;-1.60;69.40
20337;DHT22;10326;53.660;10.200;2022-12-18T09:15:56;-1.60;68.90
20337;DHT22;10326;53.660;10.200;2022-12-18T09:18:24;-1.60;68.90
20337;DHT22;10326;53.660;10.200;2022-12-18T09:20:53;-1.60;69.40
20337;DHT22;10326;53.660;10.200;2022-12-18T09:23:20;-1.50;68.90
20337;DHT22;10326;53.660;10.200;2022-12-18T09:25:48;-1.50;68.90
20337;DHT22;10326;53.660;10.200;2022-12-18T09:28:17;-1.50;68.90
20337;DHT22;10326;53.660;10.200;2022-12-18T09:30:46;-1.40;69.10
20337;DHT22;10326;53.660;10.200;2022-12-18T09:33:15;-1.40;69.10
20337;DHT22;10326;53.660;10.200;2022-12-18T09:35:44;-1.40;69.10
20337;DHT22;10326;53.660;10.200;2022-12-18T09:38:15;-1.30;69.20
20337;DHT22;10326;53.660;10.200;2022-12-18T09:40:45;-1.30;69.10
20337;DHT22;10326;53.660;10.200;2022-12-18T09:43:17;-1.20;69.20
20337;DHT22;10326;53.660;10.200;2022-12-18T09:45:49;-1.20;69.30
20337;DHT22;10326;53.660;10.200;2022-12-18T09:48:20;-1.20;69.30
20337;DHT22;10326;53.660;10.200;2022-12-18T09:50:50;-1.10;69.30
20337;DHT22;10326;53.660;10.200;2022-12-18T09:53:22;-1.10;69.40
20337;DHT22;10326;53.660;10.200;2022-12-18T09:55:53;-1.10;69.40
20337;DHT22;10326;53.660;10.200;2022-12-18T09:58:26;-1.00;69.50
20337;DHT22;10326;53.660;10.200;2022-12-18T10:00:56;-1.00;69.40
20337;DHT22;10326;53.660;10.200;2022-12-18T10:03:23;-0.90;69.50
20337;DHT22;10326;53.660;10.200;2022-12-18T10:05:59;-0.90;69.50
20337;DHT22;10326;53.660;10.200;2022-12-18T10:08:37;-0.90;69.60
20337;DHT22;10326;53.660;10.200;2022-12-18T10:11:26;-0.80;69.60
20337;DHT22;10326;53.660;10.200;2022-12-18T10:14:04;-0.80;69.70
20337;DHT22;10326;53.660;10.200;2022-12-18T10:16:42;-0.70;69.70
20337;DHT22;10326;53.660;10.200;2022-12-18T10:19:30;-0.70;69.70
20337;DHT22;10326;53.660;10.200;2022-12-18T10:22:11;-0.60;69.90
20337;DHT22;10326;53.660;10.200;2022-12-18T10:24:48;-0.60;69.90
20337;DHT22;10326;53.660;10.200;2022-12-18T10:27:24;-0.60;70.00
20337;DHT22;10326;53.660;10.200;2022-12-18T10:29:52;-0.50;70.00
20337;DHT22;10326;53.660;10.200;2022-12-18T10:32:22;-0.50;70.00
20337;DHT22;10326;53.660;10.200;2022-12-18T10:34:51;-0.40;70.00
20337;DHT22;10326;53.660;10.200;2022-12-18T10:37:21;-0.40;70.00
20337;DHT22;10326;53.660;10.200;2022-12-18T10:40:08;-0.30;70.00
20337;DHT22;10326;53.660;10.200;2022-12-18T10:42:38;-0.30;70.10
20337;DHT22;10326;53.660;10.200;2022-12-18T10:45:11;-0.20;70.00
20337;DHT22;10326;53.660;10.200;2022-12-18T10:47:43;-0.20;70.00
20337;DHT22;10326;53.660;10.200;2022-12-18T10:50:19;-0.10;70.10
20337;DHT22;10326;53.660;10.200;2022-12-18T10:52:57;-0.10;70.10
20337;DHT22;10326;53.660;10.200;2022-12-18T10:55:31;-0.10;70.00
20337;DHT22;10326;53.660;10.200;2022-12-18T10:58:16;0.00;70.10
20337;DHT22;10326;53.660;10.200;2022-12-18T11:01:02;0.00;70.10
20337;DHT22;10326;53.660;10.200;2022-12-18T11:03:36;0.10;70.20
20337;DHT22;10326;53.660;10.200;2022-12-18T11:06:07;0.10;70.20
20337;DHT22;10326;53.660;10.200;2022-12-18T11:08:36;0.20;70.30
20337;DHT22;10326;53.660;10.200;2022-12-18T11:11:21;0.20;70.30
20337;DHT22;10326;53.660;10.200;2022-12-18T11:13:58;0.20;70.30
20337;DHT22;10326;53.660;10.200;2022-12-18T11:16:30;0.30;70.40
20337;DHT22;10326;53.660;10.200;2022-12-18T11:19:24;0.40;70.40
20337;DHT22;10326;53.660;10.200;2022-12-18T11:21:57;0.40;70.30
20337;DHT22;10326;53.660;10.200;2022-12-18T11:24:29;0.50;70.40
20337;DHT22;10326;53.660;10.200;2022-12-18T11:27:01;0.50;70.30
20337;DHT22;10326;53.660;10.200;2022-12-18T11:29:34;0.60;70.40
20337;DHT22;10326;53.660;10.200;2022-12-18T11:32:31;0.60;70.30
20337;DHT22;10326;53.660;10.200;2022-12-18T11:35:10;0.70;70.30
20337;DHT22;10326;53.660;10.200;2022-12-18T11:37:40;0.70;70.30
20337;DHT22;10326;53.660;10.200;2022-12-18T11:40:13;0.80;70.30
20337;DHT22;10326;53.660;10.200;2022-12-18T11:42:50;0.80;70.20
20337;DHT22;10326;53.660;10.200;2022-12-18T11:45:29;0.90;70.30
20337;DHT22;10326;53.660;10.200;2022-12-18T11:48:02;0.90;70.30
20337;DHT22;10326;53.660;10.200;2022-12-18T11:50:38;0.90;70.40
20337;DHT22;10326;53.660;10.200;2022-12-18T11:53:11;1.00;70.40
20337;DHT22;10326;53.660;10.200;2022-12-18T11:55:45;1.00;70.30
20337;DHT22;10326;53.660;10.200;2022-12-18T11:58:28;1.00;70.30
20337;DHT22;10326;53.660;10.200;2022-12-18T12:01:12;1.10;70.80
20337;DHT22;10326;53.660;10.200;2022-12-18T12:07:04;1.20;70.30
20337;DHT22;10326;53.660;10.200;2022-12-18T12:09:44;1.30;70.40
20337;DHT22;10326;53.660;10.200;2022-12-18T12:12:27;1.30;70.30
20337;DHT22;10326;53.660;10.200;2022-12-18T12:15:20;1.30;70.20
20337;DHT22;10326;53.660;10.200;2022-12-18T12:17:55;1.40;70.20
20337;DHT22;10326;53.660;10.200;2022-12-18T12:20:36;1.40;70.10
20337;DHT22;10326;53.660;10.200;2022-12-18T12:23:18;1.50;70.00
20337;DHT22;10326;53.660;10.200;2022-12-18T12:25:54;1.50;70.10
20337;DHT22;10326;53.660;10.200;2022-12-18T12:28:36;1.50;70.10
20337;DHT22;10326;53.660;10.200;2022-12-18T12:31:29;1.50;69.90
20337;DHT22;10326;53.660;10.200;2022-12-18T12:34:13;1.60;69.90
20337;DHT22;10326;53.660;10.200;2022-12-18T12:36:54;1.60;69.80
20337;DHT22;10326;53.660;10.200;2022-12-18T12:39:31;1.70;70.00
20337;DHT22;10326;53.660;10.200;2022-12-18T12:42:02;1.70;70.10
20337;DHT22;10326;53.660;10.200;2022-12-18T12:44:51;1.70;70.20
20337;DHT22;10326;53.660;10.200;2022-12-18T12:47:32;1.80;70.20
20337;DHT22;10326;53.660;10.200;2022-12-18T12:50:06;1.90;69.90
20337;DHT22;10326;53.660;10.200;2022-12-18T12:52:42;1.90;69.70
20337;DHT22;10326;53.660;10.200;2022-12-18T12:55:16;1.90;69.50
20337;DHT22;10326;53.660;10.200;2022-12-18T12:57:48;1.90;69.20
20337;DHT22;10326;53.660;10.200;2022-12-18T13:00:19;1.90;69.20
20337;DHT22;10326;53.660;10.200;2022-12-18T13:02:52;1.90;69.30
20337;DHT22;10326;53.660;10.200;2022-12-18T13:05:27;1.90;69.20
20337;DHT22;10326;53.660;10.200;2022-12-18T13:08:01;1.90;69.00
20337;DHT22;10326;53.660;10.200;2022-12-18T13:10:33;1.90;68.80
20337;DHT22;10326;53.660;10.200;2022-12-18T13:13:04;1.90;68.90
20337;DHT22;10326;53.660;10.200;2022-12-18T13:15:37;1.80;68.80
20337;DHT22;10326;53.660;10.200;2022-12-18T13:18:19;1.80;68.80
20337;DHT22;10326;53.660;10.200;2022-12-18T13:20:49;1.80;69.20
20337;DHT22;10326;53.660;10.200;2022-12-18T13:23:35;1.80;69.00
20337;DHT22;10326;53.660;10.200;2022-12-18T13:26:29;1.80;68.80
20337;DHT22;10326;53.660;10.200;2022-12-18T13:28:59;1.80;68.70
20337;DHT22;10326;53.660;10.200;2022-12-18T13:34:47;1.80;68.50
20337;DHT22;10326;53.660;10.200;2022-12-18T13:37:50;1.80;68.80
20337;DHT22;10326;53.660;10.200;2022-12-18T13:40:55;1.80;68.80
20337;DHT22;10326;53.660;10.200;2022-12-18T13:43:29;1.80;68.80
20337;DHT22;10326;53.660;10.200;2022-12-18T13:46:06;1.80;68.90
20337;DHT22;10326;53.660;10.200;2022-12-18T13:48:55;1.80;68.80
20337;DHT22;10326;53.660;10.200;2022-12-18T13:51:26;1.80;68.70
20337;DHT22;10326;53.660;10.200;2022-12-18T13:53:56;1.80;68.60
20337;DHT22;10326;53.660;10.200;2022-12-18T13:56:28;1.70;68.50
20337;DHT22;10326;53.660;10.200;2022-12-18T13:59:11;1.70;68.40
20337;DHT22;10326;53.660;10.200;2022-12-18T14:01:46;1.70;68.30
20337;DHT22;10326;53.660;10.200;2022-12-18T14:04:24;1.70;68.30
20337;DHT22;10326;53.660;10.200;2022-12-18T14:06:56;1.70;68.30
20337;DHT22;10326;53.660;10.200;2022-12-18T14:09:26;1.60;68.20
20337;DHT22;10326;53.660;10.200;2022-12-18T14:11:56;1.60;68.20
20337;DHT22;10326;53.660;10.200;2022-12-18T14:14:41;1.50;68.10
20337;DHT22;10326;53.660;10.200;2022-12-18T14:17:11;1.50;68.10
20337;DHT22;10326;53.660;10.200;2022-12-18T14:19:42;1.50;68.00
20337;DHT22;10326;53.660;10.200;2022-12-18T14:22:16;1.50;68.00
20337;DHT22;10326;53.660;10.200;2022-12-18T14:24:44;1.40;67.90
20337;DHT22;10326;53.660;10.200;2022-12-18T14:27:19;1.40;68.00
20337;DHT22;10326;53.660;10.200;2022-12-18T14:29:48;1.40;68.00
20337;DHT22;10326;53.660;10.200;2022-12-18T14:32:17;1.30;68.00
20337;DHT22;10326;53.660;10.200;2022-12-18T14:34:46;1.30;68.00
20337;DHT22;10326;53.660;10.200;2022-12-18T14:37:17;1.20;67.90
20337;DHT22;10326;53.660;10.200;2022-12-18T14:39:55;1.20;68.00
20337;DHT22;10326;53.660;10.200;2022-12-18T14:42:25;1.20;68.00
20337;DHT22;10326;53.660;10.200;2022-12-18T14:48:06;1.20;68.00
20337;DHT22;10326;53.660;10.200;2022-12-18T14:50:35;1.20;68.00
20337;DHT22;10326;53.660;10.200;2022-12-18T14:53:04;1.10;68.00
20337;DHT22;10326;53.660;10.200;2022-12-18T14:55:34;1.10;68.00
20337;DHT22;10326;53.660;10.200;2022-12-18T14:58:02;1.10;68.00
20337;DHT22;10326;53.660;10.200;2022-12-18T15:00:30;1.00;67.90
20337;DHT22;10326;53.660;10.200;2022-12-18T15:02:58;1.00;68.00
20337;DHT22;10326;53.660;10.200;2022-12-18T15:05:27;1.00;68.10
20337;DHT22;10326;53.660;10.200;2022-12-18T15:07:57;0.90;68.00
20337;DHT22;10326;53.660;10.200;2022-12-18T15:10:28;0.90;68.00
20337;DHT22;10326;53.660;10.200;2022-12-18T15:13:15;0.90;68.00
20337;DHT22;10326;53.660;10.200;2022-12-18T15:15:49;0.90;67.90
20337;DHT22;10326;53.660;10.200;2022-12-18T15:18:19;0.90;68.00
20337;DHT22;10326;53.660;10.200;2022-12-18T15:20:49;0.80;67.90
20337;DHT22;10326;53.660;10.200;2022-12-18T15:23:20;0.80;67.90
20337;DHT22;10326;53.660;10.200;2022-12-18T15:25:55;0.80;68.00
20337;DHT22;10326;53.660;10.200;2022-12-18T15:28:25;0.70;67.90
20337;DHT22;10326;53.660;10.200;2022-12-18T15:31:17;0.70;68.50
20337;DHT22;10326;53.660;10.200;2022-12-18T15:34:10;0.70;68.00
20337;DHT22;10326;53.660;10.200;2022-12-18T15:36:40;0.70;68.00
20337;DHT22;10326;53.660;10.200;2022-12-18T15:39:11;0.70;68.10
20337;DHT22;10326;53.660;10.200;2022-12-18T15:41:42;0.60;68.00
20337;DHT22;10326;53.660;10.200;2022-12-18T15:44:32;0.60;68.00
20337;DHT22;10326;53.660;10.200;2022-12-18T15:46:58;0.60;68.00
20337;DHT22;10326;53.660;10.200;2022-12-18T15:49:25;0.60;68.00
20337;DHT22;10326;53.660;10.200;2022-12-18T15:51:54;0.50;68.00
20337;DHT22;10326;53.660;10.200;2022-12-18T15:54:24;0.50;68.00
20337;DHT22;10326;53.660;10.200;2022-12-18T15:57:08;0.50;68.00
20337;DHT22;10326;53.660;10.200;2022-12-18T15:59:53;0.50;68.00